Pagrindinis puslapis
METAR-TAF:

METAR-TAF

Oro uostai :

Tetuano oro uostas

Tetuanas, Marokas

platuma: 35-35N, ilguma: 005-20W, Aukštis: 10 m

Dabartinis oras

Ataskaita buvo paskelbta 33 minutes, ne 23:00 UTC
Vėjas 6 kt iš Šiaurės/Šiaurės Vakarų, svyruoja nuo Vakarų ir Šiaurės Rytų
Temperatūra 14°C
Drėgmė 94%
Slėgis 1006 hPa
Matomumas 10 km arba daugiau
Su prošvaistėmis ne aukštis 3000 ft
Išsisklaidę debesys ne aukštis 8000 ft

METAR: GMTN 302300Z 33006KT 260V050 9999 BKN030 SCT080 14/13 Q1006 NOSIG

Laikas: 00:33 (23:33 UTC)


TAF: trūkstamas

Orai ataskaitas ir orų prognozės (METAR, TAF).

turimą stotys yra geltonos ir raudonos taškus žemėlapyje.

Perkelti pele per norėdami pamatyti stoties vardą.

Tada spustelėkite, norėdami matyti oro stebėjimo ir prognozės.

Norėdami pakeisti žemėlapį: spustelėkite ant žalios mygtukų su juodo kryžiaus žemyn,; žalią mygtuką su brūkšneliu, jei norite nutolinti; arba žalių rodyklių gretimoms žemėlapius.


METAR-TAF: